Mari Lampton — WDE3648 — position and weather

sailwx.info

Track history (hours):
 
Tides and Currents Weather Stations Pressure Air Temp Water Temp Dewpoint Dewpoint Depression Visibility Wind Speed Wind Dir Waves Ship Positions

Mari Lampton

Owner: MAgnolia Marine Transport Company, Vicksburg, MS. More information available from US FCC via Universal Licensing System and Coast Guard Vessel Documentation Center.

Last reported at 2015-Nov-24 14:33 UTC. Time now 2016-Feb-11 08:45 UTC.
Position N 29°54' W 092°30'.
Warning: this ship's position is months out of date.

Length 34 m.

Type: Towing. MMSI: 367342210.

Date/timePositionNaut miles runAvg speedWind from/ knotsBaromVisibWave heightAir tempDewpointWater temp
2015-Nov-24 14:33N 29°54' W 092°30'6 4.8
2015-Nov-24 13:18N 29°55' W 092°37'2 3.1
2015-Nov-24 12:31N 29°56' W 092°40'0 0.0
2015-Nov-24 11:31N 29°56' W 092°40'0 0.0
2015-Nov-24 09:33N 29°56' W 092°40'0 0.0
2015-Nov-24 08:33N 29°56' W 092°40'0 0.0
2015-Nov-24 07:33N 29°56' W 092°40'6 1.6
2015-Nov-24 04:05N 29°58' W 092°46'3 5.1
2015-Nov-24 03:32N 29°58' W 092°49'5 5.1
2015-Nov-24 02:30N 29°56' W 092°55'4 4.7
2015-Nov-24 01:33N 29°56' W 092°60'4 4.3
2015-Nov-24 00:34N 29°56' W 093°05'5 4.6
2015-Nov-23 23:33N 29°57' W 093°10'5 4.7
2015-Nov-23 22:33N 30°00' W 093°14'2 1.8
2015-Nov-23 21:33N 30°02' W 093°15'0 0.0
2015-Nov-23 20:34N 30°02' W 093°15'0 0.3
2015-Nov-23 19:34N 30°02' W 093°14'0 0.3
2015-Nov-23 18:33N 30°02' W 093°15'4 3.5
2015-Nov-23 17:34N 30°05' W 093°17'3 2.7
2015-Nov-23 16:33N 30°05' W 093°20'4 4.4
2015-Nov-23 15:33N 30°04' W 093°25'5 5.0
2015-Nov-23 14:33N 30°04' W 093°31'5 4.8
2015-Nov-23 13:33N 30°04' W 093°36'5 4.8
2015-Nov-23 12:34N 30°04' W 093°42'7 5.6
2015-Nov-23 11:22N 29°59' W 093°48'  
2015-Nov-21 06:33N 30°05' W 094°04'0 0.0
2015-Nov-21 03:28N 30°05' W 094°04'0 0.0
2015-Nov-21 02:29N 30°05' W 094°04'6 0.5
2015-Nov-20 13:09N 30°01' W 093°59'7 0.2
2015-Nov-19 01:09N 29°58' W 093°52'0 0.2
2015-Nov-19 00:33N 29°58' W 093°52'0 0.0
2015-Nov-18 15:05N 29°58' W 093°52'0 0.0
2015-Nov-18 14:33N 29°58' W 093°52'0 0.2
2015-Nov-18 13:33N 29°58' W 093°52'0 0.0
2015-Nov-18 12:33N 29°58' W 093°52'0 0.0
2015-Nov-18 11:33N 29°58' W 093°52'0 0.0
2015-Nov-18 10:33N 29°58' W 093°52'0 0.0
2015-Nov-18 08:17N 29°58' W 093°52'0 0.0
2015-Nov-18 07:33N 29°58' W 093°52'0 0.0
2015-Nov-18 05:33N 29°58' W 093°52'0 0.0
2015-Nov-18 04:33N 29°58' W 093°52'0 0.0
2015-Nov-18 01:22N 29°58' W 093°52'  
2015-Nov-15 05:10N 29°34' W 094°55'5 7.2
2015-Nov-15 04:29N 29°39' W 094°58'3 2.5
2015-Nov-15 03:10N 29°41' W 095°00'0 0.0
2015-Nov-15 02:21N 29°41' W 095°00'0 0.0
2015-Nov-15 01:32N 29°41' W 095°00'0 0.0
2015-Nov-15 00:33N 29°41' W 095°00'0 0.0
2015-Nov-14 23:29N 29°41' W 095°00'0 0.0
2015-Nov-14 22:33N 29°41' W 095°00'0 0.0
2015-Nov-14 21:26N 29°41' W 095°00'0 0.0
2015-Nov-14 20:33N 29°41' W 095°00'0 0.0
2015-Nov-14 19:12N 29°41' W 095°00'0 0.0
2015-Nov-14 18:33N 29°41' W 095°00'0 0.0
2015-Nov-14 17:17N 29°41' W 095°00'0 0.0
2015-Nov-14 16:30N 29°41' W 095°00'0 0.0
2015-Nov-14 15:33N 29°41' W 095°00'0 0.0
2015-Nov-14 14:33N 29°41' W 095°00'  
Track history (hours):
 
Tides and Currents Weather Stations Pressure Air Temp Water Temp Dewpoint Dewpoint Depression Visibility Wind Speed Wind Dir Waves Ship Positions

Mari Lampton

Owner: MAgnolia Marine Transport Company, Vicksburg, MS. More information available from US FCC via Universal Licensing System and Coast Guard Vessel Documentation Center.

Last reported at 2015-Nov-24 14:33 UTC. Time now 2016-Feb-11 08:45 UTC.
Position N 29°54' W 092°30'.
Warning: this ship's position is months out of date.

Length 34 m.

Type: Towing. MMSI: 367342210.

Date/timePositionNaut miles runAvg speedWind from/ knotsBaromVisibWave heightAir tempDewpointWater temp
2015-Nov-24 14:33N 29°54' W 092°30'6 4.8
2015-Nov-24 13:18N 29°55' W 092°37'2 3.1
2015-Nov-24 12:31N 29°56' W 092°40'0 0.0
2015-Nov-24 11:31N 29°56' W 092°40'0 0.0
2015-Nov-24 09:33N 29°56' W 092°40'0 0.0
2015-Nov-24 08:33N 29°56' W 092°40'0 0.0
2015-Nov-24 07:33N 29°56' W 092°40'6 1.6
2015-Nov-24 04:05N 29°58' W 092°46'3 5.1
2015-Nov-24 03:32N 29°58' W 092°49'5 5.1
2015-Nov-24 02:30N 29°56' W 092°55'4 4.7
2015-Nov-24 01:33N 29°56' W 092°60'4 4.3
2015-Nov-24 00:34N 29°56' W 093°05'5 4.6
2015-Nov-23 23:33N 29°57' W 093°10'5 4.7
2015-Nov-23 22:33N 30°00' W 093°14'2 1.8
2015-Nov-23 21:33N 30°02' W 093°15'0 0.0
2015-Nov-23 20:34N 30°02' W 093°15'0 0.3
2015-Nov-23 19:34N 30°02' W 093°14'0 0.3
2015-Nov-23 18:33N 30°02' W 093°15'4 3.5
2015-Nov-23 17:34N 30°05' W 093°17'3 2.7
2015-Nov-23 16:33N 30°05' W 093°20'4 4.4
2015-Nov-23 15:33N 30°04' W 093°25'5 5.0
2015-Nov-23 14:33N 30°04' W 093°31'5 4.8
2015-Nov-23 13:33N 30°04' W 093°36'5 4.8
2015-Nov-23 12:34N 30°04' W 093°42'7 5.6
2015-Nov-23 11:22N 29°59' W 093°48'  
2015-Nov-21 06:33N 30°05' W 094°04'0 0.0
2015-Nov-21 03:28N 30°05' W 094°04'0 0.0
2015-Nov-21 02:29N 30°05' W 094°04'6 0.5
2015-Nov-20 13:09N 30°01' W 093°59'7 0.2
2015-Nov-19 01:09N 29°58' W 093°52'0 0.2
2015-Nov-19 00:33N 29°58' W 093°52'0 0.0
2015-Nov-18 15:05N 29°58' W 093°52'0 0.0
2015-Nov-18 14:33N 29°58' W 093°52'0 0.2
2015-Nov-18 13:33N 29°58' W 093°52'0 0.0
2015-Nov-18 12:33N 29°58' W 093°52'0 0.0
2015-Nov-18 11:33N 29°58' W 093°52'0 0.0
2015-Nov-18 10:33N 29°58' W 093°52'0 0.0
2015-Nov-18 08:17N 29°58' W 093°52'0 0.0
2015-Nov-18 07:33N 29°58' W 093°52'0 0.0
2015-Nov-18 05:33N 29°58' W 093°52'0 0.0
2015-Nov-18 04:33N 29°58' W 093°52'0 0.0
2015-Nov-18 01:22N 29°58' W 093°52'  
2015-Nov-15 05:10N 29°34' W 094°55'5 7.2
2015-Nov-15 04:29N 29°39' W 094°58'3 2.5
2015-Nov-15 03:10N 29°41' W 095°00'0 0.0
2015-Nov-15 02:21N 29°41' W 095°00'0 0.0
2015-Nov-15 01:32N 29°41' W 095°00'0 0.0
2015-Nov-15 00:33N 29°41' W 095°00'0 0.0
2015-Nov-14 23:29N 29°41' W 095°00'0 0.0
2015-Nov-14 22:33N 29°41' W 095°00'0 0.0
2015-Nov-14 21:26N 29°41' W 095°00'0 0.0
2015-Nov-14 20:33N 29°41' W 095°00'0 0.0
2015-Nov-14 19:12N 29°41' W 095°00'0 0.0
2015-Nov-14 18:33N 29°41' W 095°00'0 0.0
2015-Nov-14 17:17N 29°41' W 095°00'0 0.0
2015-Nov-14 16:30N 29°41' W 095°00'0 0.0
2015-Nov-14 15:33N 29°41' W 095°00'0 0.0
2015-Nov-14 14:33N 29°41' W 095°00'  

Dump ship's entire track history